createdAt,value
2019-03-22T00:00:50.190Z,9.20
2019-03-22T00:03:19.334Z,9.30
2019-03-22T00:06:07.604Z,9.20
2019-03-22T00:08:36.801Z,9.20
2019-03-22T00:11:05.968Z,9.30
2019-03-22T00:13:35.191Z,9.30
2019-03-22T00:16:04.429Z,9.30
2019-03-22T00:18:33.643Z,9.40
2019-03-22T00:21:02.769Z,9.30
2019-03-22T00:23:31.900Z,9.30
2019-03-22T00:26:01.053Z,9.40
2019-03-22T00:28:30.313Z,9.30
2019-03-22T00:30:59.468Z,9.30
2019-03-22T00:33:28.609Z,9.30
2019-03-22T00:35:57.810Z,9.30
2019-03-22T00:38:26.944Z,9.20
2019-03-22T00:40:56.345Z,9.20
2019-03-22T00:43:25.457Z,9.30
2019-03-22T00:45:54.837Z,9.30
2019-03-22T00:48:24.930Z,9.30
2019-03-22T00:50:54.194Z,9.30
2019-03-22T00:53:23.336Z,9.30
2019-03-22T00:55:52.482Z,9.20
2019-03-22T00:58:21.600Z,9.30
2019-03-22T01:00:52.364Z,9.20
2019-03-22T01:03:21.732Z,9.30
2019-03-22T01:05:50.869Z,9.30
2019-03-22T01:08:20.025Z,9.30
2019-03-22T01:10:49.161Z,9.30
2019-03-22T01:13:18.626Z,9.20
2019-03-22T01:15:47.760Z,9.10
2019-03-22T01:18:16.960Z,9.00
2019-03-22T01:20:46.080Z,9.00
2019-03-22T01:23:16.667Z,9.00
2019-03-22T01:25:45.811Z,9.00
2019-03-22T01:28:15.055Z,9.00
2019-03-22T01:30:44.184Z,9.00
2019-03-22T01:33:13.320Z,9.00
2019-03-22T01:35:42.473Z,8.90
2019-03-22T01:38:11.656Z,8.90
2019-03-22T01:40:40.792Z,8.90
2019-03-22T01:43:09.921Z,9.00
2019-03-22T01:45:39.116Z,8.90
2019-03-22T01:48:08.504Z,8.80
2019-03-22T01:50:37.653Z,8.90
2019-03-22T01:53:06.792Z,8.80
2019-03-22T01:55:36.021Z,8.80
2019-03-22T01:58:05.295Z,8.90
2019-03-22T02:00:34.498Z,8.90
2019-03-22T02:03:03.758Z,9.00
2019-03-22T02:05:32.878Z,9.00
2019-03-22T02:08:02.120Z,9.00
2019-03-22T02:10:31.257Z,9.00
2019-03-22T02:13:00.413Z,9.00
2019-03-22T02:15:29.534Z,8.90
2019-03-22T02:17:58.675Z,9.00
2019-03-22T02:20:27.877Z,9.10
2019-03-22T02:22:57.017Z,9.00
2019-03-22T02:25:45.267Z,9.10
2019-03-22T02:28:14.607Z,9.10
2019-03-22T02:30:43.945Z,9.10
2019-03-22T02:33:33.945Z,9.10
2019-03-22T02:36:03.153Z,9.10
2019-03-22T02:38:32.457Z,9.10
2019-03-22T02:41:02.955Z,9.10
2019-03-22T02:43:32.119Z,9.10
2019-03-22T02:46:01.315Z,9.20
2019-03-22T02:48:49.510Z,9.30
2019-03-22T02:51:22.274Z,9.30
2019-03-22T02:53:51.449Z,9.30
2019-03-22T02:56:20.649Z,9.20
2019-03-22T02:58:49.797Z,9.20
2019-03-22T03:01:18.939Z,9.10
2019-03-22T03:03:48.073Z,9.10
2019-03-22T03:06:18.304Z,9.10
2019-03-22T03:08:47.466Z,9.10
2019-03-22T03:11:19.739Z,9.00
2019-03-22T03:13:48.881Z,9.00
2019-03-22T03:16:18.102Z,8.90
2019-03-22T03:18:47.216Z,8.90
2019-03-22T03:21:17.448Z,8.90
2019-03-22T03:23:46.578Z,8.80
2019-03-22T03:26:15.827Z,8.70
2019-03-22T03:28:46.611Z,8.80
2019-03-22T03:31:15.934Z,8.80
2019-03-22T03:33:45.073Z,8.80
2019-03-22T03:36:14.565Z,8.80
2019-03-22T03:38:46.022Z,8.80
2019-03-22T03:41:15.345Z,8.80
2019-03-22T03:43:44.483Z,8.80
2019-03-22T03:46:13.636Z,8.80
2019-03-22T03:48:42.821Z,8.80
2019-03-22T03:51:11.953Z,8.70
2019-03-22T03:53:41.098Z,8.60
2019-03-22T03:56:10.333Z,8.60
2019-03-22T03:58:58.537Z,8.60
2019-03-22T04:01:27.679Z,8.60
2019-03-22T04:03:56.835Z,8.60
2019-03-22T04:06:25.982Z,8.50
2019-03-22T04:08:55.100Z,8.50
2019-03-22T04:11:24.247Z,8.60
2019-03-22T04:13:53.404Z,8.60
2019-03-22T04:16:22.609Z,8.60
2019-03-22T04:18:51.781Z,8.70
2019-03-22T04:21:20.934Z,8.70
2019-03-22T04:23:50.076Z,8.70
2019-03-22T04:26:19.233Z,8.70
2019-03-22T04:28:48.497Z,8.60
2019-03-22T04:31:17.843Z,8.60
2019-03-22T04:33:46.981Z,8.60
2019-03-22T04:36:16.257Z,8.70
2019-03-22T04:38:48.090Z,8.70
2019-03-22T04:41:18.220Z,8.70
2019-03-22T04:43:48.960Z,8.70
2019-03-22T04:46:18.068Z,8.70
2019-03-22T04:48:49.477Z,8.70
2019-03-22T04:51:18.614Z,8.70
2019-03-22T04:53:52.096Z,8.60
2019-03-22T04:56:21.238Z,8.60
2019-03-22T04:58:50.424Z,8.50
2019-03-22T05:01:20.620Z,8.60
2019-03-22T05:04:08.845Z,8.60
2019-03-22T05:06:38.205Z,8.50
2019-03-22T05:09:09.408Z,8.50
2019-03-22T05:11:38.649Z,8.50
2019-03-22T05:14:07.796Z,8.60
2019-03-22T05:16:37.013Z,8.60
2019-03-22T05:19:06.205Z,8.50
2019-03-22T05:21:35.347Z,8.50
2019-03-22T05:24:23.552Z,8.50
2019-03-22T05:26:52.852Z,8.50
2019-03-22T05:29:30.612Z,8.40
2019-03-22T05:32:05.689Z,8.40
2019-03-22T05:34:34.952Z,8.30
2019-03-22T05:37:04.385Z,8.40
2019-03-22T05:39:33.569Z,8.30
2019-03-22T05:42:03.049Z,8.20
2019-03-22T05:44:32.223Z,8.20
2019-03-22T05:47:20.457Z,8.20
2019-03-22T05:49:49.623Z,8.20
2019-03-22T05:52:37.925Z,8.10
2019-03-22T05:55:07.483Z,8.10
2019-03-22T05:57:36.912Z,8.20
2019-03-22T06:00:25.150Z,8.10
2019-03-22T06:02:54.300Z,8.20
2019-03-22T06:05:23.440Z,8.20
2019-03-22T06:07:52.563Z,8.20
2019-03-22T06:10:21.776Z,8.10
2019-03-22T06:12:50.899Z,8.20
2019-03-22T06:15:20.165Z,8.20
2019-03-22T06:17:51.813Z,8.10
2019-03-22T06:20:20.227Z,8.10
2019-03-22T06:22:58.792Z,8.10
2019-03-22T06:25:27.985Z,8.10
2019-03-22T06:27:57.241Z,8.20
2019-03-22T06:30:26.417Z,8.10
2019-03-22T06:32:55.527Z,8.10
2019-03-22T06:35:24.700Z,8.10
2019-03-22T06:37:53.870Z,8.10
2019-03-22T06:40:23.071Z,8.10
2019-03-22T06:43:11.263Z,8.00
2019-03-22T06:45:40.441Z,7.90
2019-03-22T06:48:09.591Z,7.90
2019-03-22T06:51:00.176Z,7.90
2019-03-22T06:53:40.609Z,7.90
2019-03-22T06:56:09.783Z,7.90
2019-03-22T06:58:38.928Z,7.90
2019-03-22T07:01:08.130Z,8.00
2019-03-22T07:03:37.353Z,8.00
2019-03-22T07:06:06.548Z,8.00
2019-03-22T07:08:35.692Z,8.00
2019-03-22T07:11:04.884Z,8.10
2019-03-22T07:13:34.103Z,8.10
2019-03-22T07:16:03.652Z,8.00
2019-03-22T07:18:32.969Z,8.00
2019-03-22T07:21:02.195Z,8.00
2019-03-22T07:23:32.769Z,7.90
2019-03-22T07:26:01.955Z,7.90
2019-03-22T07:28:31.356Z,7.90
2019-03-22T07:31:00.633Z,7.80
2019-03-22T07:33:29.901Z,7.90
2019-03-22T07:36:08.199Z,7.90
2019-03-22T07:38:37.380Z,7.90
2019-03-22T07:41:06.686Z,7.80
2019-03-22T07:43:35.881Z,7.80
2019-03-22T07:46:05.046Z,7.90
2019-03-22T07:48:34.289Z,7.90
2019-03-22T07:51:05.843Z,7.90
2019-03-22T07:53:35.328Z,7.90
2019-03-22T07:56:06.080Z,7.90
2019-03-22T07:58:35.277Z,7.80
2019-03-22T08:01:05.526Z,7.70
2019-03-22T08:03:55.628Z,7.70
2019-03-22T08:06:29.321Z,7.70
2019-03-22T08:09:00.827Z,7.50
2019-03-22T08:12:04.331Z,7.50
2019-03-22T08:14:39.095Z,7.60
2019-03-22T08:17:16.024Z,7.70
2019-03-22T08:19:45.250Z,7.60
2019-03-22T08:22:14.564Z,7.70
2019-03-22T08:24:43.745Z,7.60
2019-03-22T08:27:12.945Z,7.70
2019-03-22T08:29:42.130Z,7.80
2019-03-22T08:32:11.324Z,7.90
2019-03-22T08:34:40.727Z,8.00
2019-03-22T08:37:10.086Z,8.00
2019-03-22T08:39:39.233Z,8.10
2019-03-22T08:42:08.411Z,8.20
2019-03-22T08:44:37.683Z,8.20
2019-03-22T08:47:06.867Z,8.30
2019-03-22T08:49:36.095Z,8.30
2019-03-22T08:52:05.473Z,8.10
2019-03-22T08:54:34.777Z,8.10
2019-03-22T08:57:03.960Z,8.10
2019-03-22T08:59:35.327Z,8.00
2019-03-22T09:02:04.516Z,8.00
2019-03-22T09:04:33.919Z,7.80
2019-03-22T09:07:06.288Z,8.00
2019-03-22T09:09:41.597Z,8.10
2019-03-22T09:12:07.630Z,8.20
2019-03-22T09:14:37.008Z,8.30
2019-03-22T09:17:06.150Z,8.30
2019-03-22T09:19:35.652Z,8.30
2019-03-22T09:22:07.018Z,8.40
2019-03-22T09:24:39.248Z,8.50
2019-03-22T09:27:07.063Z,8.60
2019-03-22T09:29:36.240Z,8.80
2019-03-22T09:32:06.711Z,8.90
2019-03-22T09:34:35.933Z,8.90
2019-03-22T09:37:05.428Z,9.10
2019-03-22T09:39:37.616Z,9.40
2019-03-22T09:42:25.958Z,9.70
2019-03-22T09:44:55.396Z,9.70
2019-03-22T09:47:24.628Z,9.70
2019-03-22T09:49:53.803Z,9.90
2019-03-22T09:52:23.012Z,10.00
2019-03-22T09:54:52.571Z,9.90
2019-03-22T09:57:21.725Z,9.80
2019-03-22T09:59:50.852Z,10.00
2019-03-22T10:02:20.134Z,10.20
2019-03-22T10:04:52.306Z,10.50
2019-03-22T10:07:40.813Z,10.60
2019-03-22T10:10:10.351Z,10.70
2019-03-22T10:12:39.694Z,10.80
2019-03-22T10:15:08.895Z,10.90
2019-03-22T10:17:38.155Z,11.10
2019-03-22T10:20:07.330Z,11.20
2019-03-22T10:22:39.550Z,11.30
2019-03-22T10:25:08.684Z,11.50
2019-03-22T10:27:38.119Z,11.50
2019-03-22T10:30:26.434Z,11.40
2019-03-22T10:32:55.713Z,11.50
2019-03-22T10:35:26.236Z,11.70
2019-03-22T10:38:00.379Z,11.90
2019-03-22T10:40:26.695Z,11.80
2019-03-22T10:42:57.855Z,11.70
2019-03-22T10:45:27.046Z,11.70
2019-03-22T10:47:56.201Z,11.80
2019-03-22T10:50:25.700Z,11.90
2019-03-22T10:52:56.339Z,12.10
2019-03-22T10:55:30.441Z,12.10
2019-03-22T10:58:19.906Z,12.10
2019-03-22T11:00:36.482Z,12.10
2019-03-22T11:03:08.672Z,12.20
2019-03-22T11:05:37.860Z,12.20
2019-03-22T11:08:07.122Z,12.30
2019-03-22T11:10:36.842Z,12.30
2019-03-22T11:13:06.016Z,12.50
2019-03-22T11:15:35.378Z,12.60
2019-03-22T11:18:05.841Z,12.80
2019-03-22T11:20:35.085Z,12.90
2019-03-22T11:23:10.237Z,12.90
2019-03-22T11:25:39.450Z,12.90
2019-03-22T11:28:27.768Z,13.00
2019-03-22T11:31:04.543Z,13.00
2019-03-22T11:33:28.027Z,13.20
2019-03-22T11:35:57.274Z,13.30
2019-03-22T11:38:26.448Z,13.40
2019-03-22T11:40:55.796Z,13.60
2019-03-22T11:43:25.663Z,13.60
2019-03-22T11:45:54.950Z,13.80
2019-03-22T11:48:24.180Z,13.70
2019-03-22T11:50:53.375Z,13.80
2019-03-22T11:53:22.573Z,13.80
2019-03-22T11:55:51.788Z,13.90
2019-03-22T11:58:20.936Z,14.00
2019-03-22T12:00:50.114Z,14.20
2019-03-22T12:03:19.276Z,14.20
2019-03-22T12:05:48.423Z,14.30
2019-03-22T12:08:20.389Z,14.30
2019-03-22T12:10:49.590Z,14.40
2019-03-22T12:13:18.731Z,14.40
2019-03-22T12:15:48.278Z,14.60
2019-03-22T12:18:17.485Z,14.70
2019-03-22T12:20:46.656Z,14.80
2019-03-22T12:23:18.677Z,14.90
2019-03-22T12:25:47.829Z,15.00
2019-03-22T12:28:18.295Z,15.00
2019-03-22T12:30:47.493Z,15.20
2019-03-22T12:33:19.984Z,15.20
2019-03-22T12:35:49.175Z,15.20
2019-03-22T12:38:18.318Z,15.30
2019-03-22T12:40:47.555Z,15.50
2019-03-22T12:43:16.854Z,15.50
2019-03-22T12:45:46.014Z,15.40
2019-03-22T12:48:15.408Z,15.20
2019-03-22T12:50:44.605Z,15.20
2019-03-22T12:53:13.814Z,15.40
2019-03-22T12:55:42.977Z,15.40
2019-03-22T12:58:12.414Z,15.40
2019-03-22T13:00:41.600Z,15.50
2019-03-22T13:03:13.487Z,15.60
2019-03-22T13:05:42.659Z,15.50
2019-03-22T13:08:11.862Z,15.60
2019-03-22T13:10:41.046Z,15.70
2019-03-22T13:13:10.182Z,15.70
2019-03-22T13:15:40.214Z,15.70
2019-03-22T13:18:12.034Z,15.80
2019-03-22T13:20:41.202Z,16.00
2019-03-22T13:23:10.393Z,16.00
2019-03-22T13:25:39.613Z,16.00
2019-03-22T13:28:11.588Z,16.10
2019-03-22T13:30:41.032Z,16.20
2019-03-22T13:33:10.294Z,16.40
2019-03-22T13:35:39.706Z,16.50
2019-03-22T13:38:08.884Z,16.50
2019-03-22T13:40:38.068Z,16.60
2019-03-22T13:43:07.580Z,16.50
2019-03-22T13:45:36.715Z,16.40
2019-03-22T13:48:05.865Z,16.40
2019-03-22T13:50:35.006Z,16.50
2019-03-22T13:53:04.332Z,16.50
2019-03-22T13:55:33.490Z,16.30
2019-03-22T13:58:04.045Z,16.30
2019-03-22T14:00:33.239Z,16.40
2019-03-22T14:03:02.865Z,16.50
2019-03-22T14:05:32.743Z,16.50
2019-03-22T14:08:01.985Z,16.40
2019-03-22T14:10:32.742Z,16.40
2019-03-22T14:13:05.315Z,16.50
2019-03-22T14:15:34.780Z,16.40
2019-03-22T14:18:03.931Z,16.40
2019-03-22T14:20:34.930Z,16.50
2019-03-22T14:23:07.208Z,16.40
2019-03-22T14:25:36.681Z,16.30
2019-03-22T14:28:06.436Z,16.20
2019-03-22T14:30:35.724Z,16.50
2019-03-22T14:33:12.877Z,16.50
2019-03-22T14:35:35.864Z,16.40
2019-03-22T14:38:08.072Z,15.90
2019-03-22T14:40:37.215Z,15.50
2019-03-22T14:43:06.445Z,15.10
2019-03-22T14:45:35.724Z,14.80
2019-03-22T14:48:04.913Z,14.70
2019-03-22T14:50:34.359Z,14.60
2019-03-22T14:53:06.813Z,14.50
2019-03-22T14:55:36.037Z,14.50
2019-03-22T14:58:05.546Z,14.50
2019-03-22T15:00:34.772Z,14.50
2019-03-22T15:03:08.567Z,14.40
2019-03-22T15:05:37.796Z,14.40
2019-03-22T15:08:07.070Z,14.30
2019-03-22T15:10:36.381Z,14.00
2019-03-22T15:13:06.101Z,13.70
2019-03-22T15:15:49.495Z,13.30
2019-03-22T15:18:52.502Z,12.90
2019-03-22T15:21:29.589Z,12.30
2019-03-22T15:24:16.772Z,12.00
2019-03-22T15:27:13.421Z,11.80
2019-03-22T15:30:07.865Z,11.50
2019-03-22T15:33:16.960Z,11.10
2019-03-22T15:39:02.450Z,10.50
2019-03-22T15:41:31.772Z,10.40
2019-03-22T15:44:00.965Z,10.50
2019-03-22T15:46:49.238Z,10.60
2019-03-22T15:49:18.450Z,10.40
2019-03-22T15:51:48.836Z,10.20
2019-03-22T15:54:18.353Z,10.40
2019-03-22T15:56:47.485Z,10.60
2019-03-22T15:59:19.927Z,10.50
2019-03-22T16:01:49.099Z,10.60
2019-03-22T16:04:18.834Z,10.40
2019-03-22T16:06:48.097Z,10.40
2019-03-22T16:09:17.338Z,10.40
2019-03-22T16:11:46.572Z,10.40
2019-03-22T16:14:18.760Z,10.30
2019-03-22T16:16:47.929Z,10.00
2019-03-22T16:19:18.530Z,10.10
2019-03-22T16:21:47.696Z,10.10
2019-03-22T16:24:20.432Z,10.10
2019-03-22T16:26:49.620Z,10.10
2019-03-22T16:29:18.809Z,10.10
2019-03-22T16:31:48.184Z,10.20
2019-03-22T16:34:19.491Z,10.10
2019-03-22T16:36:48.639Z,9.90
2019-03-22T16:39:20.608Z,9.80
2019-03-22T16:41:49.763Z,9.80
2019-03-22T16:44:18.901Z,9.70
2019-03-22T16:46:48.071Z,9.70
2019-03-22T16:49:19.693Z,9.50
2019-03-22T16:52:07.971Z,9.20
2019-03-22T16:54:37.223Z,9.10
2019-03-22T16:57:06.398Z,8.80
2019-03-22T16:59:35.552Z,8.60
2019-03-22T17:02:05.038Z,8.50
2019-03-22T17:04:34.522Z,8.40
2019-03-22T17:07:06.313Z,8.20
2019-03-22T17:09:54.601Z,8.20
2019-03-22T17:12:23.787Z,8.20
2019-03-22T17:14:52.953Z,8.10
2019-03-22T17:17:22.122Z,8.00
2019-03-22T17:19:51.542Z,8.10
2019-03-22T17:22:20.781Z,8.10
2019-03-22T17:24:49.939Z,8.10
2019-03-22T17:27:19.120Z,8.10
2019-03-22T17:29:49.806Z,8.10
2019-03-22T17:32:18.954Z,8.00
2019-03-22T17:34:48.138Z,8.00
2019-03-22T17:37:19.277Z,8.10
2019-03-22T17:39:48.405Z,8.10
2019-03-22T17:42:20.558Z,8.10
2019-03-22T17:44:49.693Z,8.20
2019-03-22T17:47:18.861Z,8.10
2019-03-22T17:49:48.682Z,8.00
2019-03-22T17:52:17.920Z,7.90
2019-03-22T17:54:47.133Z,7.90
2019-03-22T17:57:19.101Z,7.90
2019-03-22T17:59:48.420Z,7.80
2019-03-22T18:02:20.586Z,7.80
2019-03-22T18:04:49.769Z,7.70
2019-03-22T18:07:18.973Z,7.60
2019-03-22T18:09:48.413Z,7.60
2019-03-22T18:12:17.745Z,7.70
2019-03-22T18:14:46.881Z,7.80
2019-03-22T18:17:17.104Z,7.70
2019-03-22T18:19:46.241Z,7.70
2019-03-22T18:22:15.437Z,7.70
2019-03-22T18:24:44.611Z,7.70
2019-03-22T18:27:15.460Z,7.60
2019-03-22T18:29:44.563Z,7.60
2019-03-22T18:32:13.678Z,7.60
2019-03-22T18:34:42.833Z,7.60
2019-03-22T18:37:11.970Z,7.60
2019-03-22T18:39:41.140Z,7.60
2019-03-22T18:42:10.372Z,7.50
2019-03-22T18:44:39.523Z,7.40
2019-03-22T18:47:11.395Z,7.40
2019-03-22T18:49:40.541Z,7.50
2019-03-22T18:52:09.765Z,7.50
2019-03-22T18:54:38.879Z,7.50
2019-03-22T18:57:08.047Z,7.50
2019-03-22T18:59:37.217Z,7.60
2019-03-22T19:02:06.616Z,7.60
2019-03-22T19:04:43.861Z,7.70
2019-03-22T19:07:06.698Z,7.70
2019-03-22T19:09:35.900Z,7.60
2019-03-22T19:12:05.125Z,7.60
2019-03-22T19:14:34.337Z,7.60
2019-03-22T19:17:04.524Z,7.60
2019-03-22T19:19:33.702Z,7.60
2019-03-22T19:22:02.989Z,7.60
2019-03-22T19:24:32.138Z,7.60
2019-03-22T19:27:01.275Z,7.60
2019-03-22T19:29:30.427Z,7.60
2019-03-22T19:32:00.400Z,7.60
2019-03-22T19:34:29.579Z,7.70
2019-03-22T19:36:58.733Z,7.70
2019-03-22T19:39:29.301Z,7.70
2019-03-22T19:41:58.524Z,7.70
2019-03-22T19:44:27.813Z,7.70
2019-03-22T19:46:56.959Z,7.70
2019-03-22T19:49:26.120Z,7.70
2019-03-22T19:51:59.457Z,7.70
2019-03-22T19:54:28.715Z,7.70
2019-03-22T19:56:57.872Z,7.70
2019-03-22T19:59:27.062Z,7.70
2019-03-22T20:01:57.502Z,7.80
2019-03-22T20:04:26.659Z,7.80
2019-03-22T20:06:55.907Z,7.80
2019-03-22T20:09:25.079Z,7.80
2019-03-22T20:11:54.360Z,7.90
2019-03-22T20:14:23.533Z,7.90
2019-03-22T20:16:52.677Z,7.90
2019-03-22T20:19:21.845Z,8.00
2019-03-22T20:21:50.995Z,8.00
2019-03-22T20:24:20.193Z,8.00
2019-03-22T20:26:49.368Z,7.90
2019-03-22T20:29:18.570Z,7.90
2019-03-22T20:31:48.040Z,7.90
2019-03-22T20:34:19.341Z,8.00
2019-03-22T20:36:48.480Z,8.00
2019-03-22T20:39:17.975Z,8.10
2019-03-22T20:41:47.126Z,8.10
2019-03-22T20:44:18.253Z,8.20
2019-03-22T20:46:47.414Z,8.20
2019-03-22T20:49:16.619Z,8.20
2019-03-22T20:51:46.088Z,8.30
2019-03-22T20:54:16.568Z,8.30
2019-03-22T20:56:45.931Z,8.30
2019-03-22T20:59:16.620Z,8.40
2019-03-22T21:01:45.774Z,8.40
2019-03-22T21:04:15.854Z,8.30
2019-03-22T21:06:45.030Z,8.40
2019-03-22T21:09:16.474Z,8.30
2019-03-22T21:11:45.096Z,8.40
2019-03-22T21:14:14.285Z,8.40
2019-03-22T21:16:43.864Z,8.40
2019-03-22T21:19:13.079Z,8.40
2019-03-22T21:21:42.322Z,8.40
2019-03-22T21:24:11.547Z,8.40
2019-03-22T21:26:40.894Z,8.40
2019-03-22T21:29:10.208Z,8.40
2019-03-22T21:31:39.400Z,8.30
2019-03-22T21:34:08.586Z,8.30
2019-03-22T21:36:37.914Z,8.30
2019-03-22T21:39:07.822Z,8.30
2019-03-22T21:41:37.296Z,8.30
2019-03-22T21:44:06.441Z,8.30
2019-03-22T21:46:35.657Z,8.30
2019-03-22T21:49:04.899Z,8.30
2019-03-22T21:51:34.167Z,8.30
2019-03-22T21:54:03.394Z,8.30
2019-03-22T21:56:32.636Z,8.40
2019-03-22T21:59:05.500Z,8.40
2019-03-22T22:01:35.003Z,8.40
2019-03-22T22:04:04.392Z,8.50
2019-03-22T22:06:33.575Z,8.50
2019-03-22T22:09:07.184Z,8.50
2019-03-22T22:11:36.727Z,8.60
2019-03-22T22:14:05.876Z,8.60
2019-03-22T22:16:35.129Z,8.60
2019-03-22T22:19:04.397Z,8.60
2019-03-22T22:21:33.538Z,8.70
2019-03-22T22:24:02.793Z,8.70
2019-03-22T22:26:31.944Z,8.70
2019-03-22T22:29:01.061Z,8.70
2019-03-22T22:31:30.196Z,8.80
2019-03-22T22:33:59.605Z,8.80
2019-03-22T22:36:28.761Z,8.80
2019-03-22T22:38:57.925Z,8.80
2019-03-22T22:41:27.106Z,8.90
2019-03-22T22:43:58.864Z,8.90
2019-03-22T22:46:28.023Z,8.90
2019-03-22T22:48:57.155Z,8.90
2019-03-22T22:51:26.304Z,8.90
2019-03-22T22:53:55.488Z,8.90
2019-03-22T22:56:24.629Z,8.90
2019-03-22T22:58:54.090Z,9.00
2019-03-22T23:01:23.283Z,9.00
2019-03-22T23:03:52.392Z,9.00
2019-03-22T23:06:24.513Z,9.00
2019-03-22T23:08:53.648Z,9.00
2019-03-22T23:11:22.828Z,9.00
2019-03-22T23:13:51.999Z,9.00
2019-03-22T23:16:21.139Z,9.00
2019-03-22T23:18:50.333Z,9.10
2019-03-22T23:21:19.504Z,9.10
2019-03-22T23:23:59.996Z,9.10
2019-03-22T23:26:35.539Z,9.10
2019-03-22T23:29:15.405Z,9.10
2019-03-22T23:32:12.030Z,9.10
2019-03-22T23:35:01.252Z,9.10
2019-03-22T23:37:17.996Z,9.10
2019-03-22T23:39:47.152Z,9.10
2019-03-22T23:42:19.933Z,9.10
2019-03-22T23:44:49.108Z,9.10
2019-03-22T23:47:18.260Z,9.10
2019-03-22T23:49:47.406Z,9.10
2019-03-22T23:52:16.686Z,9.20
2019-03-22T23:54:45.862Z,9.20
2019-03-22T23:57:15.049Z,9.20
2019-03-22T23:59:44.185Z,9.20
